Right now: Transfers 2022 > 2023

Colin Joyce is a cyclist from USA (born August 6th 1994), who currently rides for Human Powered Health (UCI ProTeam).

Race program

Information

2022 2021 2020 2019 2018 2017 2016 2015 2014 2013

Human Powered Health (ProTeam) UCI Ranking: 734 (79pts) UCI: Race days: 45 UCI: Distance: 7.786km
Date Pos GC Race UCI
28.07 Vuelta a Castilla y León | 2.1 2022-07-28 Show more
28.07 59 Vuelta a Castilla y León | Overall 2022-07-28
27.03 25 La Roue Tourangelle | 1.1 2022-03-273Show more
20.03 5 GP Criquielion | 1.2 2022-03-2015Show more
18.03 12 Bredene Koksijde Classic | 1.Pro 2022-03-1825Show more
16.03 103 Nokere Koerse | 1.Pro 2022-03-16Show more
20.02 Volta ao Algarve | 2.Pro 2022-02-20 Show more
20.02 118 Volta ao Algarve | Overall 2022-02-20
01.03 95 Le Samyn | 1.1 2022-03-01Show more
27.02 108 Kuurne-Brussel-Kuurne | 1.Pro 2022-02-27Show more
13.02 Tour of Antalya | 2.1 2022-02-13 Show more
13.02 28 Tour of Antalya | Overall 2022-02-13
01.04 45 Route Adélie de Vitré | 1.1 2022-04-01Show more
17.04 Tour of Türkiye | 2.Pro 2022-04-17 Show more
17.04 DNF Tour of Türkiye | Overall 2022-04-17
25.07 84 Villafranca de Ordizia | 1.1 2022-07-25Show more
26.06 37 USA RR | CN 2022-06-26Show more
12.06 ZLM Tour | 2.Pro 2022-06-12 Show more
12.06 51 ZLM Tour | Overall 2022-06-12
29.05 Boucles de la Mayenne | 2.Pro 2022-05-29 Show more
29.05 81 Boucles de la Mayenne | Overall 2022-05-29
06.06 64 Ronde van Limburg | 1.1 2022-06-06Show more
04.06 61 Heistse Pijl | 1.1 2022-06-04Show more
21.05 90 Veenendaal Classic | 1.1 2022-05-21Show more
08.05 4 Jours de Dunkerque | 2.Pro 2022-05-08 Show more
08.05 69 4 Jours de Dunkerque | Overall 2022-05-08
15.05 75 Tro-Bro Leon | 1.Pro 2022-05-15Show more
07.08 SAZKA Tour | 2.1 2022-08-07 Show more
07.08 86 SAZKA Tour | Overall 2022-08-07
20.02 32 Volta ao Algarve | Points 2022-02-20
17.08 PostNord Danmark Rundt 2.Pro 2022-08-17 Show more
17.08 82 72 PostNord Danmark Rundt | 2nd stage 2022-08-17
16.08 50 54 PostNord Danmark Rundt | 1st stage 2022-08-16
07.08 88 86 SAZKA Tour | 4th stage 2022-08-07
06.08 100 102 SAZKA Tour | 3rd stage 2022-08-06
05.08 88 106 SAZKA Tour | 2nd stage 2022-08-05
04.08 102 102 SAZKA Tour | 1st stage 2022-08-04
28.07 68 59 Vuelta a Castilla y León | 2nd stage 2022-07-28
27.07 40 42 Vuelta a Castilla y León | 1st stage 2022-07-27
12.06 76 51 ZLM Tour | 5th stage 2022-06-12
11.06 48 47 ZLM Tour | 4th stage 2022-06-11
10.06 24 52 ZLM Tour | 3rd stage 2022-06-10
09.06 74 68 ZLM Tour | 2nd stage 2022-06-09
08.06 72 73 ZLM Tour | 1st stage 2022-06-08
29.05 90 81 Boucles de la Mayenne | 4th stage 2022-05-29
28.05 81 87 Boucles de la Mayenne | 3rd stage 2022-05-28
27.05 98 95 Boucles de la Mayenne | 2nd stage 2022-05-27
26.05 89 92 Boucles de la Mayenne | 1st stage 2022-05-26
08.05 75 69 4 Jours de Dunkerque | 6th stage 2022-05-08
07.05 65 68 4 Jours de Dunkerque | 5th stage 2022-05-07
06.05 40 91 4 Jours de Dunkerque | 4th stage 2022-05-06
05.05 77 91 4 Jours de Dunkerque | 3rd stage 2022-05-05
04.05 103 102 4 Jours de Dunkerque | 2nd stage 2022-05-04
03.05 68 68 4 Jours de Dunkerque | 1st stage 2022-05-03
10.04 DNS Tour of Türkiye | 1st stage 2022-04-10
20.02 119 118 Volta ao Algarve | 5th stage 2022-02-20
19.02 127 124 Volta ao Algarve | 4th stage 2022-02-19
18.02 9 117 Volta ao Algarve | 3rd stage 2022-02-18
17.02 144 126 Volta ao Algarve | 2nd stage 2022-02-17
16.02 86 87 Volta ao Algarve | 1st stage 2022-02-16
13.02 21 28 Tour of Antalya | 4th stage 2022-02-13
12.02 31 29 Tour of Antalya | 3rd stage 2022-02-12
11.02 7 17 Tour of Antalya | 2nd stage 2022-02-11
10.02 24 25 Tour of Antalya | 1st stage 2022-02-10